LPFRGMTT

Guest
Details From LPFR - Faro
To GMTT - IBN BATOUTA
Flight Number -
Tags generated
Created
Modified
Stats Distance 128 nm / 236 km
Max Altitude 4,400 ft / 1,341 m
Waypoints 3
Social Downloads 2
Likes 0
Share VATSIM

Download

Looking for another format? Having issues loading an existing format? Contact us
Advertisement - Login to hide

Notes

Basic altitude profile: - Ascent Rate: 2500ft/min - Ascent Speed: 250kts - Cruise Altitude: 35000ft - Cruise Speed: 420kts - Descent Rate: 1500ft/min - Descent Speed: 250kts Options: - Use NATs: yes - Use PACOTS: yes - Use low airways: no - Use high airways: yes

Route

LPFR ADUBI GMTT

ID Type Via Altitude Latitude Longitude Leg Dist Tot Dist Heading (true) Name
O LPFR APT - 0 ft / 0 m 37.01534˚ -7.97233˚ - 0 nm - Faro
ADUBI FIX - 4,400 ft / 1,341 m 35.83333˚ -6.32389˚ 106 nm 106 nm 131° / 132° -
O GMTT APT - 0 ft / 0 m 35.72691˚ -5.91690˚ 20 nm 127 nm 108° / 108° IBN BATOUTA

Altitude Profile

Advertisement - Login to hide

LPFR

Details ICAO LPFR (FAO)
Name Faro
Region Portugal
Timezone Europe/Lisbon (UTC+1.0)
Stats Elevation 24 ft / 7 m (AMSL)
Location 37.015336° -7.972327°
Runways 1
Magnetic Variation 1.883° W

METAR

LPFR 241030Z 24005KT 210V270 9999 FEW015 BKN030 18/15 Q1013

Decode

TAF

TAF LPFR 240500Z 2406/2506 VRB03KT 9999 FEW025 TEMPO 2406/2420 8000 SHRA BKN020 FEW025TCU PROB40 TEMPO 2406/2418 VRB10G20KT 3000 TSRA SCT020CB BECMG 2407/2410 24010KT BECMG 2420/2423 VRB03KT SCT012

Decode

Departure Runways

ID Width Length Bearing (true) Bearing (mag) Surface Threshold Offset Overrun Length
10 148 ft / 45 m 8,148 ft / 2,484 m 100.08° 101.96° Asphalt 148 ft / 45 m 0 ft / 0 m
28 148 ft / 45 m 8,148 ft / 2,484 m 280.10° 281.98° Asphalt 148 ft / 45 m 0 ft / 0 m

GMTT

Details ICAO GMTT (TNG)
Name IBN BATOUTA
Region Morocco
Timezone Africa/Casablanca (UTC+0.0)
Stats Elevation 62 ft / 19 m (AMSL)
Location 35.726911° -5.916900°
Runways 2
Magnetic Variation 1.240° W

METAR

GMTT 241030Z 30007KT 6000 SCT013 BKN020 21/14 Q1015 NOSIG

Decode

TAF

TAF GMTT 240500Z 2406/2512 29005KT 6000 SCT013 BKN023 PROB30 TEMPO 2408/2415 3000 TSRA SCT013 BKN015 FEW020CB BECMG 2421/2423 18010KT

Decode

Destination Runways

ID Width Length Bearing (true) Bearing (mag) Surface Threshold Offset Overrun Length
07 98 ft / 30 m 6,555 ft / 1,998 m 69.91° 71.15° Asphalt 0 ft / 0 m 0 ft / 0 m
10 148 ft / 45 m 11,465 ft / 3,495 m 96.01° 97.25° Asphalt 0 ft / 0 m 197 ft / 60 m
25 98 ft / 30 m 6,555 ft / 1,998 m 249.92° 251.16° Asphalt 0 ft / 0 m 0 ft / 0 m
28 148 ft / 45 m 11,465 ft / 3,495 m 276.03° 277.27° Asphalt 1,640 ft / 500 m 197 ft / 60 m

Approach Navaids

Runway Type Ident Frequency Range Bearing (true) Bearing (mag) Slope Elevation
28 Localiser TAG 109.30 MHz 18 nm / 33 km 276.22° 277.46° - 62 ft / 19 m (AMSL)
28 Glidescope TAG 109.30 MHz 10 nm / 19 km 276.02° 277.26° 2.99° 52 ft / 16 m (AMSL)

Popular Alternatives